createdAt,value
2019-04-01T00:01:16.578Z,96023.25
2019-04-01T00:07:01.991Z,96023.33
2019-04-01T00:09:51.691Z,96022.12
2019-04-01T00:12:33.855Z,96022.91
2019-04-01T00:15:23.585Z,96020.19
2019-04-01T00:18:06.374Z,96001.86
2019-04-01T00:20:56.105Z,96018.71
2019-04-01T00:23:45.831Z,96020.99
2019-04-01T00:26:28.373Z,96004.91
2019-04-01T00:29:18.157Z,96023.58
2019-04-01T00:32:08.046Z,96032.88
2019-04-01T00:37:56.671Z,96029.23
2019-04-01T00:40:46.398Z,96029.30
2019-04-01T00:43:47.857Z,96032.33
2019-04-01T00:46:37.613Z,96034.73
2019-04-01T00:49:20.177Z,96034.55
2019-04-01T00:52:09.912Z,96033.45
2019-04-01T00:54:52.157Z,96028.59
2019-04-01T00:57:41.901Z,96032.84
2019-04-01T01:00:23.959Z,96008.23
2019-04-01T01:03:13.712Z,96024.17
2019-04-01T01:05:56.486Z,96027.81
2019-04-01T01:08:46.210Z,96027.73
2019-04-01T01:11:35.983Z,96022.81
2019-04-01T01:14:18.501Z,96021.46
2019-04-01T01:17:08.256Z,96020.63
2019-04-01T01:19:57.978Z,96006.09
2019-04-01T01:22:39.955Z,96016.69
2019-04-01T01:25:29.747Z,96012.14
2019-04-01T01:28:19.635Z,96011.44
2019-04-01T01:31:09.522Z,96012.36
2019-04-01T01:33:40.179Z,95996.33
2019-04-01T01:36:29.880Z,96000.22
2019-04-01T01:39:14.104Z,96002.59
2019-04-01T01:42:03.879Z,96000.05
2019-04-01T01:44:53.676Z,95994.14
2019-04-01T01:47:43.380Z,95996.84
2019-04-01T01:50:25.466Z,95992.73
2019-04-01T01:53:15.306Z,95997.56
2019-04-01T01:55:57.912Z,95992.97
2019-04-01T01:58:47.644Z,95994.41
2019-04-01T02:01:30.000Z,95991.81
2019-04-01T02:04:19.890Z,95989.45
2019-04-01T02:07:02.544Z,95991.06
2019-04-01T02:09:52.252Z,95977.16
2019-04-01T02:12:34.828Z,95986.45
2019-04-01T02:15:24.568Z,95993.75
2019-04-01T02:18:06.866Z,95987.98
2019-04-01T02:20:56.633Z,95970.69
2019-04-01T02:23:44.722Z,95984.31
2019-04-01T02:26:34.470Z,95986.29
2019-04-01T02:29:17.038Z,95976.27
2019-04-01T02:32:06.777Z,95991.58
2019-04-01T02:34:56.824Z,95988.55
2019-04-01T02:37:46.623Z,95987.66
2019-04-01T02:40:48.493Z,95996.89
2019-04-01T02:43:30.939Z,95995.08
2019-04-01T02:46:20.636Z,95973.97
2019-04-01T02:49:03.115Z,95995.27
2019-04-01T02:51:52.849Z,95965.81
2019-04-01T02:54:34.859Z,95987.65
2019-04-01T02:57:24.586Z,95985.16
2019-04-01T03:00:07.106Z,95986.41
2019-04-01T03:02:56.815Z,95970.05
2019-04-01T03:05:38.893Z,95984.81
2019-04-01T03:08:28.596Z,95992.02
2019-04-01T03:11:11.456Z,96000.33
2019-04-01T03:14:01.249Z,95995.00
2019-04-01T03:16:43.796Z,95995.73
2019-04-01T03:19:33.530Z,95979.58
2019-04-01T03:22:16.376Z,96003.88
2019-04-01T03:25:06.433Z,95999.51
2019-04-01T03:27:48.483Z,95987.70
2019-04-01T03:30:38.281Z,95986.59
2019-04-01T03:33:20.800Z,96002.69
2019-04-01T03:36:10.488Z,96004.83
2019-04-01T03:42:12.065Z,96002.02
2019-04-01T03:48:05.348Z,95997.39
2019-04-01T03:50:47.385Z,96000.13
2019-04-01T03:53:37.219Z,95998.05
2019-04-01T03:59:23.240Z,96009.16
2019-04-01T04:02:12.964Z,96007.69
2019-04-01T04:04:55.635Z,96004.16
2019-04-01T04:07:45.424Z,96005.87
2019-04-01T04:10:27.734Z,96008.01
2019-04-01T04:13:17.455Z,96008.23
2019-04-01T04:16:07.158Z,96005.62
2019-04-01T04:18:53.843Z,96011.44
2019-04-01T04:21:36.182Z,96012.89
2019-04-01T04:24:26.129Z,96008.80
2019-04-01T04:27:15.901Z,96014.40
2019-04-01T04:30:37.024Z,96003.25
2019-04-01T04:33:19.730Z,96004.16
2019-04-01T04:36:09.530Z,96011.34
2019-04-01T04:38:59.530Z,95995.25
2019-04-01T04:42:00.949Z,96011.18
2019-04-01T04:44:44.247Z,96013.60
2019-04-01T04:47:33.946Z,96016.75
2019-04-01T04:50:16.047Z,96014.56
2019-04-01T04:53:06.184Z,96008.41
2019-04-01T04:55:48.893Z,96011.66
2019-04-01T04:58:38.641Z,96022.65
2019-04-01T05:01:28.523Z,96026.22
2019-04-01T05:07:20.207Z,96026.74
2019-04-01T05:13:20.515Z,96021.86
2019-04-01T05:16:10.345Z,96015.33
2019-04-01T05:18:52.693Z,96013.28
2019-04-01T05:24:56.575Z,96033.73
2019-04-01T05:27:58.862Z,96038.77
2019-04-01T05:30:41.132Z,96037.16
2019-04-01T05:33:30.855Z,96036.53
2019-04-01T05:36:17.578Z,96038.57
2019-04-01T05:39:07.913Z,96046.33
2019-04-01T05:41:50.524Z,96040.34
2019-04-01T05:44:40.248Z,96025.13
2019-04-01T05:50:29.636Z,96048.78
2019-04-01T05:53:11.938Z,96042.08
2019-04-01T05:56:32.939Z,96044.95
2019-04-01T05:59:15.286Z,96058.55
2019-04-01T06:05:00.890Z,96057.13
2019-04-01T06:07:50.610Z,96058.84
2019-04-01T06:10:32.654Z,96055.94
2019-04-01T06:13:22.555Z,96046.38
2019-04-01T06:16:05.403Z,96058.19
2019-04-01T06:18:55.086Z,96056.20
2019-04-01T06:21:37.437Z,96037.72
2019-04-01T06:24:27.246Z,96061.45
2019-04-01T06:27:09.451Z,96063.96
2019-04-01T06:29:59.450Z,96066.13
2019-04-01T06:32:43.404Z,96066.38
2019-04-01T06:38:46.501Z,96059.50
2019-04-01T06:41:36.396Z,96052.25
2019-04-01T06:44:26.180Z,96056.91
2019-04-01T06:47:15.903Z,96048.90
2019-04-01T06:50:06.026Z,96056.71
2019-04-01T06:53:35.098Z,96048.13
2019-04-01T06:56:24.808Z,96050.69
2019-04-01T06:59:06.990Z,96053.78
2019-04-01T07:01:56.948Z,96053.30
2019-04-01T07:05:05.455Z,96054.11
2019-04-01T07:07:47.816Z,96052.39
2019-04-01T07:10:37.502Z,96038.83
2019-04-01T07:13:19.946Z,96054.91
2019-04-01T07:16:15.722Z,96056.31
2019-04-01T07:18:53.476Z,96055.41
2019-04-01T07:21:43.178Z,96056.97
2019-04-01T07:24:25.552Z,96056.75
2019-04-01T07:27:15.762Z,96052.05
2019-04-01T07:29:58.776Z,96058.69
2019-04-01T07:32:48.518Z,96054.52
2019-04-01T07:35:38.280Z,96050.57
2019-04-01T07:38:59.237Z,96061.23
2019-04-01T07:41:41.938Z,96056.54
2019-04-01T07:44:31.686Z,96064.07
2019-04-01T07:47:21.458Z,96033.30
2019-04-01T07:50:12.442Z,96053.56
2019-04-01T07:52:55.556Z,96054.34
2019-04-01T07:55:45.561Z,96059.42
2019-04-01T07:58:35.375Z,96037.89
2019-04-01T08:01:18.273Z,96067.78
2019-04-01T08:04:08.074Z,96057.75
2019-04-01T08:06:57.808Z,96062.17
2019-04-01T08:09:40.603Z,96071.25
2019-04-01T08:12:30.329Z,96060.36
2019-04-01T08:15:12.590Z,96058.00
2019-04-01T08:18:02.365Z,96052.33
2019-04-01T08:20:52.117Z,96059.72
2019-04-01T08:23:41.861Z,96055.42
2019-04-01T08:26:31.615Z,96061.55
2019-04-01T08:29:30.090Z,96070.11
2019-04-01T08:32:05.739Z,96034.30
2019-04-01T08:34:55.488Z,96062.33
2019-04-01T08:37:40.243Z,96060.25
2019-04-01T08:40:29.827Z,96064.11
2019-04-01T08:43:19.787Z,96056.77
2019-04-01T08:46:02.220Z,96058.71
2019-04-01T08:48:51.989Z,96057.53
2019-04-01T08:51:41.838Z,96071.13
2019-04-01T08:54:31.653Z,96056.38
2019-04-01T08:57:21.499Z,96067.67
2019-04-01T09:00:42.571Z,96055.03
2019-04-01T09:03:25.197Z,96054.81
2019-04-01T09:06:15.022Z,96058.72
2019-04-01T09:12:18.672Z,96066.52
2019-04-01T09:15:39.633Z,96066.70
2019-04-01T09:18:24.241Z,96067.09
2019-04-01T09:21:06.501Z,96059.50
2019-04-01T09:23:56.219Z,96059.48
2019-04-01T09:26:38.566Z,96044.70
2019-04-01T09:29:28.301Z,96067.28
2019-04-01T09:32:10.565Z,96066.28
2019-04-01T09:35:00.524Z,96055.95
2019-04-01T09:37:44.066Z,96064.73
2019-04-01T09:40:33.888Z,96034.50
2019-04-01T09:43:17.364Z,96060.95
2019-04-01T09:46:07.115Z,96047.39
2019-04-01T09:48:49.389Z,96042.84
2019-04-01T09:54:40.378Z,96037.25
2019-04-01T10:00:31.382Z,96038.05
2019-04-01T10:03:21.376Z,96034.00
2019-04-01T10:06:03.688Z,96036.22
2019-04-01T10:08:53.424Z,96023.63
2019-04-01T10:11:35.384Z,96030.84
2019-04-01T10:14:17.420Z,96017.22
2019-04-01T10:16:59.670Z,96018.14
2019-04-01T10:19:49.504Z,96013.17
2019-04-01T10:22:39.338Z,95991.56
2019-04-01T10:25:29.110Z,96025.09
2019-04-01T10:28:18.900Z,95993.19
2019-04-01T10:31:08.630Z,96005.48
2019-04-01T10:33:51.330Z,96002.20
2019-04-01T10:36:41.111Z,95993.34
2019-04-01T10:39:31.048Z,95997.62
2019-04-01T10:42:20.763Z,95993.81
2019-04-01T10:45:03.160Z,95978.91
2019-04-01T10:47:52.874Z,95983.38
2019-04-01T10:50:35.703Z,95980.54
2019-04-01T10:53:44.240Z,95978.33
2019-04-01T10:56:35.830Z,95979.01
2019-04-01T10:59:19.727Z,95977.67
2019-04-01T11:02:02.280Z,95980.08
2019-04-01T11:07:46.950Z,95963.81
2019-04-01T11:10:36.646Z,95974.41
2019-04-01T11:13:19.200Z,95963.68
2019-04-01T11:16:08.998Z,95927.39
2019-04-01T11:18:51.805Z,95955.41
2019-04-01T11:21:41.561Z,95956.41
2019-04-01T11:24:23.709Z,95952.53
2019-04-01T11:27:13.406Z,95955.98
2019-04-01T11:29:55.875Z,95952.42
2019-04-01T11:32:45.669Z,95954.33
2019-04-01T11:35:28.167Z,95949.84
2019-04-01T11:38:17.981Z,95947.41
2019-04-01T11:41:00.048Z,95943.17
2019-04-01T11:43:30.732Z,95944.02
2019-04-01T11:46:20.504Z,95940.95
2019-04-01T11:49:03.458Z,95939.70
2019-04-01T11:51:53.319Z,95944.84
2019-04-01T11:54:43.076Z,95936.67
2019-04-01T11:57:32.877Z,95936.60
2019-04-01T12:00:26.133Z,95935.96
2019-04-01T12:03:08.225Z,95924.80
2019-04-01T12:05:58.197Z,95931.41
2019-04-01T12:08:47.942Z,95926.06
2019-04-01T12:11:37.660Z,95930.13
2019-04-01T12:14:27.419Z,95924.61
2019-04-01T12:17:10.121Z,95912.94
2019-04-01T12:19:59.900Z,95906.63
2019-04-01T12:22:45.591Z,95902.30
2019-04-01T12:25:34.132Z,95915.28
2019-04-01T12:28:16.217Z,95898.44
2019-04-01T12:31:05.959Z,95900.98
2019-04-01T12:33:48.509Z,95889.57
2019-04-01T12:36:38.191Z,95894.72
2019-04-01T12:39:20.961Z,95886.16
2019-04-01T12:42:10.800Z,95898.02
2019-04-01T12:44:52.967Z,95889.28
2019-04-01T12:47:43.406Z,95897.05
2019-04-01T12:50:26.319Z,95887.38
2019-04-01T12:53:16.185Z,95898.02
2019-04-01T12:55:59.979Z,95860.14
2019-04-01T12:58:49.726Z,95872.81
2019-04-01T13:01:33.807Z,95881.03
2019-04-01T13:04:23.493Z,95869.52
2019-04-01T13:07:05.876Z,95872.94
2019-04-01T13:09:55.593Z,95866.53
2019-04-01T13:12:38.379Z,95868.89
2019-04-01T13:15:28.073Z,95860.41
2019-04-01T13:18:10.006Z,95859.00
2019-04-01T13:20:59.731Z,95864.01
2019-04-01T13:23:42.049Z,95857.56
2019-04-01T13:26:31.862Z,95857.30
2019-04-01T13:29:21.549Z,95856.91
2019-04-01T13:32:04.332Z,95859.90
2019-04-01T13:34:46.367Z,95846.16
2019-04-01T13:37:36.220Z,95839.35
2019-04-01T13:40:26.026Z,95846.82
2019-04-01T13:43:17.077Z,95834.45
2019-04-01T13:45:59.971Z,95832.39
2019-04-01T13:48:57.700Z,95831.96
2019-04-01T13:51:43.602Z,95830.06
2019-04-01T13:54:25.616Z,95821.33
2019-04-01T13:57:15.473Z,95820.28
2019-04-01T14:03:11.159Z,95813.68
2019-04-01T14:05:54.338Z,95798.09
2019-04-01T14:08:44.216Z,95789.08
2019-04-01T14:11:34.061Z,95797.75
2019-04-01T14:14:23.801Z,95800.69
2019-04-01T14:17:06.047Z,95804.98
2019-04-01T14:20:07.685Z,95774.05
2019-04-01T14:22:53.610Z,95800.02
2019-04-01T14:25:43.199Z,95780.69
2019-04-01T14:28:27.848Z,95790.65
2019-04-01T14:30:58.542Z,95795.48
2019-04-01T14:33:48.373Z,95787.75
2019-04-01T14:36:30.513Z,95789.48
2019-04-01T14:39:15.012Z,95794.69
2019-04-01T14:42:04.779Z,95782.86
2019-04-01T14:44:52.690Z,95777.22
2019-04-01T14:47:56.684Z,95790.09
2019-04-01T14:50:26.807Z,95778.36
2019-04-01T14:53:16.630Z,95777.10
2019-04-01T14:56:25.486Z,95775.45
2019-04-01T14:59:15.264Z,95772.99
2019-04-01T15:01:45.879Z,95765.94
2019-04-01T15:04:28.424Z,95764.32
2019-04-01T15:07:18.492Z,95767.27
2019-04-01T15:10:02.492Z,95760.77
2019-04-01T15:13:04.499Z,95754.58
2019-04-01T15:15:37.618Z,95776.11
2019-04-01T15:18:27.355Z,95753.20
2019-04-01T15:21:11.918Z,95749.22
2019-04-01T15:24:01.744Z,95744.08
2019-04-01T15:26:43.874Z,95746.95
2019-04-01T15:29:33.621Z,95753.91
2019-04-01T15:32:17.192Z,95746.19
2019-04-01T15:38:22.092Z,95748.58
2019-04-01T15:41:11.908Z,95735.43
2019-04-01T15:44:01.709Z,95719.07
2019-04-01T15:46:51.545Z,95745.03
2019-04-01T15:49:41.297Z,95741.28
2019-04-01T15:52:31.013Z,95728.20
2019-04-01T15:55:20.805Z,95737.70
2019-04-01T15:58:10.559Z,95733.86
2019-04-01T16:00:53.092Z,95738.13
2019-04-01T16:03:42.834Z,95738.82
2019-04-01T16:06:32.783Z,95721.96
2019-04-01T16:09:23.261Z,95721.62
2019-04-01T16:12:06.531Z,95737.41
2019-04-01T16:14:56.832Z,95737.70
2019-04-01T16:17:41.022Z,95728.67
2019-04-01T16:20:23.468Z,95730.22
2019-04-01T16:23:05.652Z,95723.17
2019-04-01T16:25:55.439Z,95726.67
2019-04-01T16:28:45.257Z,95716.67
2019-04-01T16:31:35.041Z,95718.47
2019-04-01T16:34:24.819Z,95724.34
2019-04-01T16:37:14.609Z,95727.09
2019-04-01T16:43:24.389Z,95716.39
2019-04-01T16:46:14.131Z,95717.67
2019-04-01T16:48:56.147Z,95715.04
2019-04-01T16:51:46.127Z,95713.52
2019-04-01T16:54:28.361Z,95719.88
2019-04-01T16:57:18.083Z,95719.91
2019-04-01T17:03:43.040Z,95717.95
2019-04-01T17:06:32.736Z,95721.31
2019-04-01T17:09:15.008Z,95719.16
2019-04-01T17:15:07.331Z,95717.60
2019-04-01T17:17:57.079Z,95718.66
2019-04-01T17:20:43.111Z,95719.71
2019-04-01T17:23:32.963Z,95700.75
2019-04-01T17:26:16.479Z,95722.73
2019-04-01T17:29:06.267Z,95721.95
2019-04-01T17:31:48.428Z,95719.29
2019-04-01T17:34:38.322Z,95718.44
2019-04-01T17:37:21.186Z,95720.14
2019-04-01T17:43:27.418Z,95718.52
2019-04-01T17:46:09.792Z,95718.39
2019-04-01T17:48:59.608Z,95719.77
2019-04-01T17:51:49.330Z,95725.58
2019-04-01T17:54:32.185Z,95716.84
2019-04-01T17:57:21.899Z,95721.37
2019-04-01T18:03:54.930Z,95721.08
2019-04-01T18:06:38.644Z,95719.89
2019-04-01T18:09:28.462Z,95718.00
2019-04-01T18:12:18.405Z,95729.36
2019-04-01T18:15:08.348Z,95728.39
2019-04-01T18:17:58.144Z,95726.59
2019-04-01T18:20:47.995Z,95722.91
2019-04-01T18:29:37.953Z,95734.56
2019-04-01T18:35:31.446Z,95735.06
2019-04-01T18:38:21.213Z,95747.46
2019-04-01T18:41:05.223Z,95726.13
2019-04-01T18:43:55.356Z,95751.97
2019-04-01T18:46:39.436Z,95754.11
2019-04-01T18:52:35.308Z,95758.95
2019-04-01T18:55:17.721Z,95751.14
2019-04-01T19:01:04.205Z,95761.10
2019-04-01T19:03:52.555Z,95757.78
2019-04-01T19:06:36.337Z,95760.67
2019-04-01T19:09:18.581Z,95761.80
2019-04-01T19:12:08.731Z,95770.84
2019-04-01T19:15:02.024Z,95768.61
2019-04-01T19:17:43.098Z,95768.52
2019-04-01T19:20:33.141Z,95762.97
2019-04-01T19:26:16.345Z,95762.66
2019-04-01T19:29:06.119Z,95764.16
2019-04-01T19:32:09.421Z,95773.47
2019-04-01T19:34:51.591Z,95760.74
2019-04-01T19:37:41.586Z,95769.72
2019-04-01T19:40:24.067Z,95768.78
2019-04-01T19:43:13.785Z,95775.19
2019-04-01T19:45:56.228Z,95782.09
2019-04-01T19:48:46.159Z,95775.23
2019-04-01T19:51:28.981Z,95778.75
2019-04-01T19:57:21.159Z,95786.78
2019-04-01T20:00:10.983Z,95783.57
2019-04-01T20:02:53.734Z,95761.73
2019-04-01T20:05:43.657Z,95784.22
2019-04-01T20:08:25.814Z,95782.67
2019-04-01T20:11:15.788Z,95778.88
2019-04-01T20:13:58.825Z,95780.95
2019-04-01T20:16:48.914Z,95782.56
2019-04-01T20:19:31.261Z,95786.41
2019-04-01T20:22:21.239Z,95778.80
2019-04-01T20:25:03.563Z,95762.19
2019-04-01T20:27:53.300Z,95783.81
2019-04-01T20:30:35.243Z,95782.16
2019-04-01T20:33:20.681Z,95783.70
2019-04-01T20:36:04.904Z,95776.84
2019-04-01T20:38:51.067Z,95777.63
2019-04-01T20:41:33.682Z,95779.36
2019-04-01T20:44:24.071Z,95777.77
2019-04-01T20:47:13.987Z,95783.63
2019-04-01T20:50:04.360Z,95782.14
2019-04-01T20:53:26.533Z,95777.45
2019-04-01T20:56:08.953Z,95775.70
2019-04-01T20:58:59.151Z,95774.11
2019-04-01T21:01:49.549Z,95745.12
2019-04-01T21:04:39.543Z,95772.21
2019-04-01T21:07:29.571Z,95764.00
2019-04-01T21:10:19.426Z,95764.78
2019-04-01T21:13:09.689Z,95771.00
2019-04-01T21:15:59.652Z,95753.39
2019-04-01T21:18:49.604Z,95756.00
2019-04-01T21:21:32.589Z,95767.50
2019-04-01T21:24:22.684Z,95760.00
2019-04-01T21:27:12.514Z,95739.38
2019-04-01T21:30:02.297Z,95744.72
2019-04-01T21:32:52.035Z,95764.98
2019-04-01T21:35:34.937Z,95767.33
2019-04-01T21:38:24.803Z,95762.09
2019-04-01T21:41:14.754Z,95761.16
2019-04-01T21:44:04.549Z,95756.50
2019-04-01T21:46:54.429Z,95757.28
2019-04-01T21:49:44.226Z,95760.80
2019-04-01T21:52:34.296Z,95754.20
2019-04-01T21:55:18.331Z,95744.28
2019-04-01T21:58:08.078Z,95751.83
2019-04-01T22:00:52.310Z,95750.63
2019-04-01T22:03:42.565Z,95748.53
2019-04-01T22:06:25.970Z,95749.09
2019-04-01T22:09:15.706Z,95743.86
2019-04-01T22:11:46.489Z,95738.42
2019-04-01T22:14:36.306Z,95752.61
2019-04-01T22:17:18.852Z,95749.90
2019-04-01T22:20:10.221Z,95750.37
2019-04-01T22:22:53.454Z,95748.84
2019-04-01T22:25:43.290Z,95729.66
2019-04-01T22:28:25.904Z,95750.73
2019-04-01T22:31:15.966Z,95745.91
2019-04-01T22:34:05.738Z,95748.67
2019-04-01T22:36:55.440Z,95746.01
2019-04-01T22:39:45.512Z,95750.09
2019-04-01T22:42:28.808Z,95753.22
2019-04-01T22:45:19.541Z,95748.55
2019-04-01T22:48:03.059Z,95731.27
2019-04-01T22:50:52.828Z,95742.13
2019-04-01T22:53:35.600Z,95744.06
2019-04-01T22:56:26.243Z,95744.84
2019-04-01T22:59:10.026Z,95732.86
2019-04-01T23:01:59.724Z,95740.66
2019-04-01T23:04:41.759Z,95740.27
2019-04-01T23:07:33.017Z,95737.93
2019-04-01T23:10:17.278Z,95737.32
2019-04-01T23:16:08.462Z,95737.92
2019-04-01T23:18:58.159Z,95731.56
2019-04-01T23:21:40.690Z,95735.84
2019-04-01T23:24:30.420Z,95731.95
2019-04-01T23:27:12.666Z,95734.87
2019-04-01T23:33:05.127Z,95729.59
2019-04-01T23:35:54.910Z,95732.13
2019-04-01T23:38:37.350Z,95725.92
2019-04-01T23:41:27.102Z,95729.23
2019-04-01T23:44:09.356Z,95730.41
2019-04-01T23:46:59.086Z,95722.24
2019-04-01T23:49:41.565Z,95725.94
2019-04-01T23:55:33.469Z,95728.25
2019-04-01T23:58:23.211Z,95719.72
